KPWTKCLM

Guest
Details From KPWT - Bremerton National
To KCLM - William R Fairchild Intl
Flight Number -
Tags Routegen
Created
Modified
Stats Distance 49 nm / 90 km
Max Altitude 0 ft / 0 m
Waypoints 2
Social Downloads 18
Likes 0
Share

Download

Looking for another format? Having issues loading an existing format? Contact us
Advertisement - Login to hide

Notes

None

Route

KPWT KCLM

ID Type Via Altitude (ft/m) Position (lat/lon) Dist (leg/tot) Name
O KPWT APT - 0 / 0 47.48333 / -122.77138 - / 0 nm
O KCLM APT - 0 / 0 48.12104 / -123.51152 48 / 48 nm

Altitude Profile

Advertisement - Login to hide

KPWT

Details ICAO KPWT (PWT)
Name Bremerton National
Region United States
Timezone America/Los_Angeles (UTC-7.0)
Stats Elevation 444 ft / 135 m (AMSL)
Location 47.490200° -122.765000°
Runways 1
Magnetic Variation 14.854° E

METAR

KPWT 250756Z AUTO 18005KT 10SM OVC011 09/08 A2983 RMK AO2 SLP108 T00890083 401390067

Decode

TAF

TAF KPWT 250529Z 2506/2606 20012KT P6SM FEW008 SCT060 BKN250 FM250800 20006KT P6SM -SHRA OVC015 TEMPO 2512/2515 P6SM -SHRA OVC008 FM251600 22009KT P6SM OVC015 FM251900 22013G22KT P6SM OVC025 FM252200 21012KT P6SM OVC050

Decode

Departure Runways

ID Width Length Bearing (true/mag) Surface Threshold Overrun Markings Lighting
01 151 ft / 46 m 5,997 ft / 1,828 m 32.69° / 17.83° ASPHALT 0 ft / 0 m 0 ft / 0 m APP EDGE THRESHOLD
19 151 ft / 46 m 5,997 ft / 1,828 m 212.70° / 197.84° ASPHALT 0 ft / 0 m 1,243 ft / 379 m PREC-APP EDGE THRESHOLD MALSR

KCLM

Details ICAO KCLM (CLM)
Name WILLIAM R FAIRCHILD INTL
Region United States
Timezone America/Los_Angeles (UTC-7.0)
Stats Elevation 291 ft / 89 m (AMSL)
Location 48.120800° -123.500000°
Runways 2
Magnetic Variation 15.096° E

METAR

KCLM 250753Z AUTO 26010KT 10SM OVC090 10/08 A2982 RMK AO2 SLP099 T01000078 401330094

Decode

TAF

KCLM 250529Z 2506/2606 VRB03KT P6SM FEW030 BKN035 OVC045 FM250800 VRB03KT 6SM BR VCSH OVC025 FM251200 28011KT P6SM OVC010 FM251600 28013KT P6SM OVC020 FM252000 29013G22KT P6SM OVC050 FM260300 27006KT P6SM VCSH OVC040

Decode

Destination Runways

ID Width Length Bearing (true/mag) Surface Threshold Overrun Markings Lighting
08 151 ft / 46 m 6,353 ft / 1,936 m 104.61° / 89.52° ASPHALT 0 ft / 0 m 0 ft / 0 m PREC-APP EDGE THRESHOLD MALSR
13 49 ft / 15 m 3,244 ft / 989 m 147.64° / 132.54° ASPHALT 0 ft / 0 m 0 ft / 0 m APP EDGE THRESHOLD
26 151 ft / 46 m 6,353 ft / 1,936 m 284.63° / 269.54° ASPHALT 1,355 ft / 413 m 0 ft / 0 m APP EDGE THRESHOLD REIL-OMNI
31 49 ft / 15 m 3,244 ft / 989 m 327.64° / 312.55° ASPHALT 0 ft / 0 m 0 ft / 0 m APP EDGE THRESHOLD

Approach Navaids

Runway Type Ident Frequency Range Bearing (true/mag) Slope Elevation
08 OM OM - - 104.62° / 89.53 ° - 1,069 ft / 326 m (AMSL)
08 MM MM - - 104.62° / 89.53 ° - 291 ft / 89 m (AMSL)
08 LOC-ILS ICLM 108.90 MHz 18 nm / 33 km 104.64° / 89.54 ° - 291 ft / 89 m (AMSL)
08 GS ICLM 108.90 MHz 10 nm / 19 km 105.25° / 90.15 ° 3.00° 281 ft / 86 m (AMSL)

Popular Alternatives